sensor_id;sensor_type;location;lat;lon;timestamp;temperature;humidity
15048;DHT22;7621;52.350;13.308;2023-04-24T03:37:41;12.30;99.90
15048;DHT22;7621;52.350;13.308;2023-04-24T03:40:07;12.30;99.90
15048;DHT22;7621;52.350;13.308;2023-04-24T03:42:33;12.30;99.90
15048;DHT22;7621;52.350;13.308;2023-04-24T03:44:59;12.40;99.90
15048;DHT22;7621;52.350;13.308;2023-04-24T03:47:24;12.40;99.90
15048;DHT22;7621;52.350;13.308;2023-04-24T03:49:50;12.40;99.90
15048;DHT22;7621;52.350;13.308;2023-04-24T03:52:16;12.50;99.90
15048;DHT22;7621;52.350;13.308;2023-04-24T03:54:41;12.50;99.90
15048;DHT22;7621;52.350;13.308;2023-04-24T03:57:07;12.50;99.90
15048;DHT22;7621;52.350;13.308;2023-04-24T03:59:32;12.50;99.90
15048;DHT22;7621;52.350;13.308;2023-04-24T04:01:58;12.60;99.90
15048;DHT22;7621;52.350;13.308;2023-04-24T18:42:36;13.00;77.50
15048;DHT22;7621;52.350;13.308;2023-04-24T18:45:02;12.90;77.70
15048;DHT22;7621;52.350;13.308;2023-04-24T18:47:29;12.80;78.00
15048;DHT22;7621;52.350;13.308;2023-04-24T18:49:55;12.70;78.40
15048;DHT22;7621;52.350;13.308;2023-04-24T18:52:20;12.60;78.60
15048;DHT22;7621;52.350;13.308;2023-04-24T18:54:47;12.50;79.20
15048;DHT22;7621;52.350;13.308;2023-04-24T18:57:13;12.40;79.50
15048;DHT22;7621;52.350;13.308;2023-04-24T18:59:39;12.30;79.90
15048;DHT22;7621;52.350;13.308;2023-04-24T19:02:04;12.30;80.20
15048;DHT22;7621;52.350;13.308;2023-04-24T19:04:30;12.20;80.50
15048;DHT22;7621;52.350;13.308;2023-04-24T19:06:55;12.20;80.80
15048;DHT22;7621;52.350;13.308;2023-04-24T19:09:24;12.20;81.20
15048;DHT22;7621;52.350;13.308;2023-04-24T19:11:49;12.10;81.40
15048;DHT22;7621;52.350;13.308;2023-04-24T19:14:15;12.10;81.60
15048;DHT22;7621;52.350;13.308;2023-04-24T19:16:41;12.00;82.00
15048;DHT22;7621;52.350;13.308;2023-04-24T19:19:07;12.00;82.10
15048;DHT22;7621;52.350;13.308;2023-04-24T19:21:33;12.00;82.20
15048;DHT22;7621;52.350;13.308;2023-04-24T19:23:59;12.00;82.10
15048;DHT22;7621;52.350;13.308;2023-04-24T19:26:25;12.00;82.30
15048;DHT22;7621;52.350;13.308;2023-04-24T19:28:52;11.90;82.40
15048;DHT22;7621;52.350;13.308;2023-04-24T19:31:22;11.90;82.80
15048;DHT22;7621;52.350;13.308;2023-04-24T19:33:48;11.90;83.00
15048;DHT22;7621;52.350;13.308;2023-04-24T19:36:15;11.90;83.30
15048;DHT22;7621;52.350;13.308;2023-04-24T19:38:45;11.90;83.50
15048;DHT22;7621;52.350;13.308;2023-04-24T19:41:11;11.80;83.60
15048;DHT22;7621;52.350;13.308;2023-04-24T19:43:37;11.80;83.60
15048;DHT22;7621;52.350;13.308;2023-04-24T19:46:03;11.80;83.70
15048;DHT22;7621;52.350;13.308;2023-04-24T19:48:29;11.80;84.00
15048;DHT22;7621;52.350;13.308;2023-04-24T19:51:00;11.70;84.10
15048;DHT22;7621;52.350;13.308;2023-04-24T19:53:27;11.70;84.00
15048;DHT22;7621;52.350;13.308;2023-04-24T19:55:52;11.70;84.10
15048;DHT22;7621;52.350;13.308;2023-04-24T19:58:19;11.70;84.40
15048;DHT22;7621;52.350;13.308;2023-04-24T20:00:45;11.60;84.60
15048;DHT22;7621;52.350;13.308;2023-04-24T20:03:10;11.50;84.70
15048;DHT22;7621;52.350;13.308;2023-04-24T20:05:36;11.50;84.70
15048;DHT22;7621;52.350;13.308;2023-04-24T20:08:02;11.40;84.90
15048;DHT22;7621;52.350;13.308;2023-04-24T20:10:27;11.30;85.00
15048;DHT22;7621;52.350;13.308;2023-04-24T20:12:53;11.30;85.20
15048;DHT22;7621;52.350;13.308;2023-04-24T20:15:19;11.30;85.40
15048;DHT22;7621;52.350;13.308;2023-04-24T20:17:45;11.20;85.50
15048;DHT22;7621;52.350;13.308;2023-04-24T20:20:11;11.10;85.70
15048;DHT22;7621;52.350;13.308;2023-04-24T20:22:37;11.10;85.90
15048;DHT22;7621;52.350;13.308;2023-04-24T20:25:07;11.10;86.20
15048;DHT22;7621;52.350;13.308;2023-04-24T20:27:33;11.00;86.40
15048;DHT22;7621;52.350;13.308;2023-04-24T20:29:59;10.90;86.50
15048;DHT22;7621;52.350;13.308;2023-04-24T20:32:25;10.90;86.70
15048;DHT22;7621;52.350;13.308;2023-04-24T20:34:51;10.90;86.90
15048;DHT22;7621;52.350;13.308;2023-04-24T20:37:17;10.90;87.10
15048;DHT22;7621;52.350;13.308;2023-04-24T20:39:42;10.80;87.20
15048;DHT22;7621;52.350;13.308;2023-04-24T20:42:11;10.80;87.50
15048;DHT22;7621;52.350;13.308;2023-04-24T20:44:41;10.70;87.90
15048;DHT22;7621;52.350;13.308;2023-04-24T20:47:06;10.70;88.10
15048;DHT22;7621;52.350;13.308;2023-04-24T20:49:32;10.60;88.40
15048;DHT22;7621;52.350;13.308;2023-04-24T20:51:57;10.60;88.60
15048;DHT22;7621;52.350;13.308;2023-04-24T20:54:23;10.60;88.90
15048;DHT22;7621;52.350;13.308;2023-04-24T20:56:49;10.60;89.20
15048;DHT22;7621;52.350;13.308;2023-04-24T20:59:15;10.60;89.40
15048;DHT22;7621;52.350;13.308;2023-04-24T21:01:41;10.60;89.70
